Time;durP1;ratioP1;P1;durP2;ratioP2;P2;SDS_P1;SDS_P2;PMS_P1;PMS_P2;Temp;Humidity;BMP_temperature;BMP_pressure;BME280_temperature;BME280_humidity;BME280_pressure;Samples;Min_cycle;Max_cycle;Signal;HPM_P1;HPM_P2
2023/04/03 00:00:08;;;;;;;16.75;8.88;;;;;;;;;;5006056;28;20038;-58
2023/04/03 00:02:34;;;;;;;17.75;9.75;;;;;;;;;;5004443;28;20042;-58
2023/04/03 00:05:00;;;;;;;16.38;8.45;;;;;;;;;;5025839;28;20086;-58
2023/04/03 00:07:26;;;;;;;17.00;9.48;;;;;;;;;;5004254;28;20550;-58
2023/04/03 00:09:52;;;;;;;22.45;9.98;;;;;;;;;;5008629;28;20037;-58
2023/04/03 00:12:18;;;;;;;13.50;8.02;;;;;;;;;;5008018;28;20030;-58
2023/04/03 00:14:44;;;;;;;20.63;11.00;;;;;;;;;;5007636;28;20042;-58
2023/04/03 00:17:10;;;;;;;11.25;7.22;;;;;;;;;;5006017;28;20925;-58
2023/04/03 00:19:36;;;;;;;15.40;8.95;;;;;;;;;;5011097;28;20074;-58
2023/04/03 00:22:03;;;;;;;19.52;11.77;;;;;;;;;;5007351;28;20080;-58
2023/04/03 00:24:29;;;;;;;14.48;8.93;;;;;;;;;;5008720;28;20068;-58
2023/04/03 00:26:55;;;;;;;19.45;10.63;;;;;;;;;;5026072;28;20050;-58
2023/04/03 00:29:21;;;;;;;20.83;10.88;;;;;;;;;;5006876;28;20121;-59
2023/04/03 00:31:47;;;;;;;20.63;10.88;;;;;;;;;;5006876;28;20104;-58
2023/04/03 00:34:13;;;;;;;17.08;10.02;;;;;;;;;;5007999;28;20141;-58
2023/04/03 00:36:39;;;;;;;14.73;8.43;;;;;;;;;;5005443;28;20128;-59
2023/04/03 00:39:05;;;;;;;19.45;11.35;;;;;;;;;;5008368;28;20155;-58
2023/04/03 00:41:32;;;;;;;20.35;10.45;;;;;;;;;;5004092;28;20044;-58
2023/04/03 00:43:59;;;;;;;17.50;10.43;;;;;;;;;;5008811;28;20112;-58
2023/04/03 00:46:25;;;;;;;16.33;9.10;;;;;;;;;;5009533;28;20049;-59
2023/04/03 00:48:51;;;;;;;19.52;10.45;;;;;;;;;;5006583;28;20180;-58
2023/04/03 00:51:19;;;;;;;22.02;11.70;;;;;;;;;;5008987;28;20037;-58
2023/04/03 00:53:48;;;;;;;20.80;11.57;;;;;;;;;;5008617;28;20034;-58
2023/04/03 00:56:15;;;;;;;17.98;11.38;;;;;;;;;;5001901;28;20046;-58
2023/04/03 00:58:47;;;;;;;21.08;12.90;;;;;;;;;;5004445;28;20054;-58
2023/04/03 01:01:16;;;;;;;22.23;12.38;;;;;;;;;;5005723;28;21063;-58
2023/04/03 01:03:42;;;;;;;13.23;7.85;;;;;;;;;;5004754;28;20046;-58
2023/04/03 01:06:08;;;;;;;24.50;12.68;;;;;;;;;;5006720;28;20552;-59
2023/04/03 01:08:35;;;;;;;23.73;14.20;;;;;;;;;;5003488;28;20042;-58
2023/04/03 01:11:01;;;;;;;21.75;10.02;;;;;;;;;;5004120;28;20125;-59
2023/04/03 01:13:29;;;;;;;27.75;14.00;;;;;;;;;;5002658;28;20101;-58
2023/04/03 01:15:55;;;;;;;25.15;12.55;;;;;;;;;;5008698;28;20054;-59
2023/04/03 01:18:22;;;;;;;23.50;13.07;;;;;;;;;;5007749;28;20550;-58
2023/04/03 01:20:55;;;;;;;22.13;10.20;;;;;;;;;;5008815;28;20053;-59
2023/04/03 01:23:24;;;;;;;24.80;14.35;;;;;;;;;;5003938;28;21285;-58
2023/04/03 01:25:54;;;;;;;27.48;13.85;;;;;;;;;;5008132;28;20045;-58
2023/04/03 01:28:23;;;;;;;21.75;13.95;;;;;;;;;;5038371;28;20584;-58
2023/04/03 01:31:08;;;;;;;25.73;14.55;;;;;;;;;;5006728;28;20042;-59
2023/04/03 01:33:34;;;;;;;30.60;12.13;;;;;;;;;;5002108;28;20045;-58
2023/04/03 01:36:00;;;;;;;26.05;13.40;;;;;;;;;;5006080;28;20135;-58
2023/04/03 01:38:26;;;;;;;17.85;10.57;;;;;;;;;;5010610;28;20783;-58
2023/04/03 01:40:53;;;;;;;23.55;13.18;;;;;;;;;;5009557;28;20786;-58
2023/04/03 01:43:19;;;;;;;22.92;12.13;;;;;;;;;;5006022;28;20038;-58
2023/04/03 01:45:46;;;;;;;20.40;10.50;;;;;;;;;;5003927;28;20077;-58
2023/04/03 01:48:12;;;;;;;22.85;12.55;;;;;;;;;;5001981;28;20096;-58
2023/04/03 01:50:38;;;;;;;27.27;14.00;;;;;;;;;;5000889;28;20500;-58
2023/04/03 01:53:04;;;;;;;16.13;8.65;;;;;;;;;;5003280;28;20042;-58
2023/04/03 01:55:30;;;;;;;17.88;10.18;;;;;;;;;;5006299;28;20126;-58
2023/04/03 01:57:56;;;;;;;21.73;11.90;;;;;;;;;;5002896;28;20042;-58
2023/04/03 02:00:22;;;;;;;23.88;12.77;;;;;;;;;;5006139;28;20265;-57
2023/04/03 02:02:48;;;;;;;19.55;12.40;;;;;;;;;;5006442;28;20645;-58
2023/04/03 02:05:14;;;;;;;20.05;11.55;;;;;;;;;;5009379;28;20034;-58
2023/04/03 02:07:41;;;;;;;19.35;12.00;;;;;;;;;;5004481;28;20089;-58
2023/04/03 02:10:07;;;;;;;23.10;13.00;;;;;;;;;;5005100;28;20042;-58
2023/04/03 02:12:33;;;;;;;20.95;12.55;;;;;;;;;;5007148;28;20049;-58
2023/04/03 02:14:59;;;;;;;23.13;12.52;;;;;;;;;;5007037;28;20235;-58
2023/04/03 02:17:25;;;;;;;21.95;12.85;;;;;;;;;;5008378;28;20077;-58
2023/04/03 02:19:51;;;;;;;24.15;12.52;;;;;;;;;;5006734;28;20532;-57
2023/04/03 02:22:18;;;;;;;25.58;12.35;;;;;;;;;;5004913;28;20046;-57
2023/04/03 02:24:44;;;;;;;22.27;13.77;;;;;;;;;;5006900;28;20065;-58
2023/04/03 02:27:11;;;;;;;17.73;10.80;;;;;;;;;;5006749;28;20046;-58
2023/04/03 02:29:37;;;;;;;20.88;12.38;;;;;;;;;;5003842;28;20045;-58
2023/04/03 02:32:03;;;;;;;24.08;13.43;;;;;;;;;;5017249;28;20128;-58
2023/04/03 02:34:29;;;;;;;23.17;12.93;;;;;;;;;;5006607;28;20460;-58
2023/04/03 02:36:55;;;;;;;19.70;11.35;;;;;;;;;;5001289;28;20485;-58
2023/04/03 02:39:21;;;;;;;26.15;14.73;;;;;;;;;;5007946;28;20030;-58
2023/04/03 02:41:47;;;;;;;19.00;10.35;;;;;;;;;;5007739;28;20084;-58
2023/04/03 02:44:13;;;;;;;21.77;13.20;;;;;;;;;;5012056;28;20035;-58
2023/04/03 02:46:40;;;;;;;21.13;12.60;;;;;;;;;;5010005;28;20512;-58
2023/04/03 02:49:06;;;;;;;18.95;11.10;;;;;;;;;;5004108;28;20043;-58
2023/04/03 02:51:32;;;;;;;20.05;11.82;;;;;;;;;;5002298;28;20924;-58
2023/04/03 02:53:58;;;;;;;23.40;12.98;;;;;;;;;;5001778;28;20052;-58
2023/04/03 02:56:24;;;;;;;22.65;12.48;;;;;;;;;;5007488;28;20042;-58
2023/04/03 02:58:50;;;;;;;18.42;10.82;;;;;;;;;;5006188;28;20042;-58
2023/04/03 03:01:16;;;;;;;21.00;12.40;;;;;;;;;;5008543;28;20049;-58
2023/04/03 03:03:42;;;;;;;22.23;12.85;;;;;;;;;;5005961;28;20045;-58
2023/04/03 03:06:10;;;;;;;17.80;10.63;;;;;;;;;;4999145;28;20121;-58
2023/04/03 03:08:37;;;;;;;24.70;13.88;;;;;;;;;;5005245;28;20516;-58
2023/04/03 03:11:04;;;;;;;22.23;15.10;;;;;;;;;;5007674;28;20609;-58
2023/04/03 03:13:30;;;;;;;22.20;13.95;;;;;;;;;;5003175;28;20046;-58
2023/04/03 03:15:56;;;;;;;22.10;13.63;;;;;;;;;;5008138;28;20076;-58
2023/04/03 03:18:22;;;;;;;21.60;12.73;;;;;;;;;;5006422;28;20035;-58
2023/04/03 03:21:06;;;;;;;15.18;8.38;;;;;;;;;;5005194;28;20054;-58
2023/04/03 03:23:33;;;;;;;19.10;9.90;;;;;;;;;;5000726;28;20641;-58
2023/04/03 03:26:01;;;;;;;21.45;12.00;;;;;;;;;;5003363;28;20050;-58
2023/04/03 03:28:27;;;;;;;20.88;11.88;;;;;;;;;;5003229;28;20528;-58
2023/04/03 03:30:54;;;;;;;19.77;12.93;;;;;;;;;;5006170;28;20073;-58
2023/04/03 03:33:20;;;;;;;18.27;10.82;;;;;;;;;;5005977;28;20041;-59
2023/04/03 03:35:46;;;;;;;18.63;11.40;;;;;;;;;;5012106;28;20045;-58
2023/04/03 03:38:12;;;;;;;21.25;12.52;;;;;;;;;;5008522;28;20045;-59
2023/04/03 03:40:38;;;;;;;20.95;11.25;;;;;;;;;;5007914;28;20340;-59
2023/04/03 03:43:04;;;;;;;20.60;13.13;;;;;;;;;;5005415;28;20077;-58
2023/04/03 03:45:31;;;;;;;18.75;11.25;;;;;;;;;;5005653;28;20049;-58
2023/04/03 03:47:57;;;;;;;17.25;11.32;;;;;;;;;;5003268;28;20046;-58
2023/04/03 03:50:23;;;;;;;16.63;8.35;;;;;;;;;;4999294;28;21229;-59
2023/04/03 03:52:49;;;;;;;21.02;9.63;;;;;;;;;;5004433;28;20046;-58
2023/04/03 03:55:15;;;;;;;16.83;8.90;;;;;;;;;;5012452;28;20057;-58
2023/04/03 03:57:41;;;;;;;19.73;10.10;;;;;;;;;;5002006;28;20095;-59
2023/04/03 04:00:08;;;;;;;16.77;9.18;;;;;;;;;;5003671;28;20042;-59
2023/04/03 04:02:34;;;;;;;21.98;12.02;;;;;;;;;;5000718;28;20082;-58
2023/04/03 04:05:00;;;;;;;19.88;12.02;;;;;;;;;;5002843;28;20107;-59
2023/04/03 04:07:29;;;;;;;17.77;9.82;;;;;;;;;;5006932;28;20053;-59
2023/04/03 04:09:55;;;;;;;16.88;10.77;;;;;;;;;;5026431;28;20635;-59
2023/04/03 04:12:21;;;;;;;16.08;9.63;;;;;;;;;;5007716;28;20053;-58
2023/04/03 04:14:47;;;;;;;16.10;10.50;;;;;;;;;;5004533;28;20128;-58
2023/04/03 04:17:14;;;;;;;15.25;10.25;;;;;;;;;;5006399;28;20049;-58
2023/04/03 04:19:40;;;;;;;20.50;9.20;;;;;;;;;;5008900;28;20050;-58
2023/04/03 04:22:07;;;;;;;27.30;11.85;;;;;;;;;;5009765;28;20069;-58
2023/04/03 04:24:33;;;;;;;20.65;9.80;;;;;;;;;;5007689;28;20042;-59
2023/04/03 04:26:59;;;;;;;18.05;9.75;;;;;;;;;;5011724;28;20057;-58
2023/04/03 04:29:25;;;;;;;19.08;10.60;;;;;;;;;;5010961;28;20046;-58
2023/04/03 04:31:51;;;;;;;20.48;10.80;;;;;;;;;;5013118;28;20046;-59
2023/04/03 04:34:17;;;;;;;21.15;11.85;;;;;;;;;;5006953;28;20041;-59
2023/04/03 04:36:43;;;;;;;19.95;11.13;;;;;;;;;;5009089;28;20148;-58
2023/04/03 04:39:09;;;;;;;16.17;9.80;;;;;;;;;;5009763;28;20053;-59
2023/04/03 04:41:35;;;;;;;15.93;9.65;;;;;;;;;;5009997;28;20563;-58
2023/04/03 04:44:01;;;;;;;23.02;10.98;;;;;;;;;;5004595;28;20057;-59
2023/04/03 04:46:27;;;;;;;19.50;10.65;;;;;;;;;;5007733;28;20057;-58
2023/04/03 04:48:53;;;;;;;16.55;10.50;;;;;;;;;;5007926;28;20082;-58
2023/04/03 04:51:20;;;;;;;16.15;9.25;;;;;;;;;;5006025;28;20119;-58
2023/04/03 04:53:46;;;;;;;14.38;7.20;;;;;;;;;;5018994;28;21172;-58
2023/04/03 04:56:12;;;;;;;10.70;6.88;;;;;;;;;;5001944;28;20049;-58
2023/04/03 04:58:38;;;;;;;17.45;8.52;;;;;;;;;;5003192;28;20048;-58
2023/04/03 05:01:09;;;;;;;13.02;7.03;;;;;;;;;;5007216;28;20050;-58
2023/04/03 05:03:35;;;;;;;10.05;6.70;;;;;;;;;;5002668;28;20041;-58
2023/04/03 05:06:02;;;;;;;14.73;8.82;;;;;;;;;;5006475;28;20575;-58
2023/04/03 05:08:28;;;;;;;15.32;7.72;;;;;;;;;;5003130;28;20038;-58
2023/04/03 05:10:54;;;;;;;8.90;5.88;;;;;;;;;;5001730;28;20049;-58
2023/04/03 05:13:21;;;;;;;12.73;7.25;;;;;;;;;;5006658;28;20041;-57
2023/04/03 05:15:47;;;;;;;12.52;7.70;;;;;;;;;;5009116;28;20050;-58
2023/04/03 05:18:13;;;;;;;14.85;7.82;;;;;;;;;;5001999;28;20042;-58
2023/04/03 05:20:39;;;;;;;18.35;8.73;;;;;;;;;;5006037;28;20607;-58
2023/04/03 05:23:06;;;;;;;9.30;5.70;;;;;;;;;;5004294;28;20103;-58
2023/04/03 05:25:32;;;;;;;14.02;8.95;;;;;;;;;;5010190;28;20046;-58
2023/04/03 05:27:58;;;;;;;14.23;8.75;;;;;;;;;;5006076;28;20037;-58
2023/04/03 05:30:24;;;;;;;10.10;5.20;;;;;;;;;;5008986;28;20618;-58
2023/04/03 05:32:50;;;;;;;11.57;6.65;;;;;;;;;;5002532;28;20056;-58
2023/04/03 05:35:17;;;;;;;16.30;8.80;;;;;;;;;;4997806;28;20041;-58
2023/04/03 05:37:43;;;;;;;13.00;7.25;;;;;;;;;;5002279;28;20543;-58
2023/04/03 05:40:09;;;;;;;14.50;7.43;;;;;;;;;;5001160;28;20488;-58
2023/04/03 05:42:35;;;;;;;11.05;5.97;;;;;;;;;;5002139;28;20046;-58
2023/04/03 05:45:01;;;;;;;14.30;7.15;;;;;;;;;;5003528;28;20100;-58
2023/04/03 05:47:27;;;;;;;16.50;8.55;;;;;;;;;;5036398;28;20060;-58
2023/04/03 05:49:53;;;;;;;12.43;8.00;;;;;;;;;;5002889;28;20087;-61
2023/04/03 05:52:33;;;;;;;16.08;8.85;;;;;;;;;;5004049;28;20081;-58
2023/04/03 05:54:59;;;;;;;11.80;7.60;;;;;;;;;;5003441;28;20073;-58
2023/04/03 05:57:26;;;;;;;12.25;7.15;;;;;;;;;;5003474;28;20046;-57
2023/04/03 05:59:52;;;;;;;14.68;7.78;;;;;;;;;;5000229;28;20057;-58
2023/04/03 06:02:19;;;;;;;15.27;7.75;;;;;;;;;;5000128;28;20096;-58
2023/04/03 06:04:46;;;;;;;15.45;8.18;;;;;;;;;;5006242;28;20160;-58
2023/04/03 06:07:16;;;;;;;14.57;8.65;;;;;;;;;;5007351;28;20046;-58
2023/04/03 06:09:42;;;;;;;15.13;8.18;;;;;;;;;;5008494;28;20117;-57
2023/04/03 06:12:08;;;;;;;12.32;7.07;;;;;;;;;;5009858;28;21314;-58
2023/04/03 06:14:35;;;;;;;16.50;8.38;;;;;;;;;;5008040;28;20048;-58
2023/04/03 06:17:01;;;;;;;8.25;4.60;;;;;;;;;;5004241;28;20093;-58
2023/04/03 06:19:27;;;;;;;13.93;7.60;;;;;;;;;;5008644;28;20088;-58
2023/04/03 06:21:53;;;;;;;15.15;8.57;;;;;;;;;;5006447;28;20045;-58
2023/04/03 06:24:21;;;;;;;6.88;4.63;;;;;;;;;;5006255;28;20496;-58
2023/04/03 06:26:49;;;;;;;14.38;8.13;;;;;;;;;;5007676;28;20034;-58
2023/04/03 06:29:15;;;;;;;10.32;4.20;;;;;;;;;;5010268;28;20054;-58
2023/04/03 06:31:41;;;;;;;13.55;8.38;;;;;;;;;;5006402;28;20038;-58
2023/04/03 06:34:08;;;;;;;13.07;6.97;;;;;;;;;;5008406;28;20042;-58
2023/04/03 06:36:34;;;;;;;10.80;6.35;;;;;;;;;;5000617;28;20038;-58
2023/04/03 06:39:01;;;;;;;17.65;7.97;;;;;;;;;;5001783;28;20070;-58
2023/04/03 06:41:27;;;;;;;15.63;7.57;;;;;;;;;;4994639;28;20120;-58
2023/04/03 06:43:56;;;;;;;10.85;5.88;;;;;;;;;;4997827;28;20042;-58
2023/04/03 06:46:22;;;;;;;13.40;8.13;;;;;;;;;;4990761;28;20171;-58
2023/04/03 06:48:49;;;;;;;13.05;8.40;;;;;;;;;;4997190;28;20046;-58
2023/04/03 06:51:21;;;;;;;15.70;9.05;;;;;;;;;;5009632;28;20536;-58
2023/04/03 06:53:51;;;;;;;16.77;8.27;;;;;;;;;;5002719;28;20541;-58
2023/04/03 06:56:17;;;;;;;15.93;7.95;;;;;;;;;;5003082;28;20305;-58
2023/04/03 06:58:43;;;;;;;11.25;6.60;;;;;;;;;;5002564;28;20053;-58
2023/04/03 07:01:10;;;;;;;13.98;8.02;;;;;;;;;;5004829;28;20046;-58
2023/04/03 07:03:37;;;;;;;12.25;7.88;;;;;;;;;;5003407;28;20112;-58
2023/04/03 07:06:04;;;;;;;15.27;8.20;;;;;;;;;;5001366;28;20046;-59
2023/04/03 07:08:30;;;;;;;18.80;10.00;;;;;;;;;;5006033;28;20362;-58
2023/04/03 07:10:56;;;;;;;29.98;12.38;;;;;;;;;;5005554;28;20042;-58
2023/04/03 07:13:22;;;;;;;17.60;8.07;;;;;;;;;;5006760;28;20177;-58
2023/04/03 07:15:50;;;;;;;15.57;8.88;;;;;;;;;;5006999;28;20080;-58
2023/04/03 07:18:16;;;;;;;13.48;6.28;;;;;;;;;;5013451;28;20042;-57
2023/04/03 07:20:43;;;;;;;17.25;9.15;;;;;;;;;;5006654;28;20148;-58
2023/04/03 07:23:10;;;;;;;29.88;11.15;;;;;;;;;;5006122;28;20077;-57
2023/04/03 07:25:36;;;;;;;17.95;7.97;;;;;;;;;;5013081;28;20204;-58
2023/04/03 07:28:02;;;;;;;14.32;6.63;;;;;;;;;;5009496;28;20054;-58
2023/04/03 07:30:28;;;;;;;11.00;5.72;;;;;;;;;;5042792;28;20089;-58
2023/04/03 07:32:54;;;;;;;10.23;5.53;;;;;;;;;;5015259;28;20034;-57
2023/04/03 07:35:20;;;;;;;11.90;8.77;;;;;;;;;;5012405;28;20144;-58
2023/04/03 07:37:47;;;;;;;8.18;5.22;;;;;;;;;;5012646;28;20104;-58
2023/04/03 07:40:13;;;;;;;13.65;8.20;;;;;;;;;;5015095;28;20048;-58
2023/04/03 07:42:39;;;;;;;16.23;8.73;;;;;;;;;;5011230;28;21205;-58
2023/04/03 07:45:05;;;;;;;12.98;8.88;;;;;;;;;;5015527;28;20922;-58
2023/04/03 07:47:31;;;;;;;12.32;6.75;;;;;;;;;;5014205;28;20491;-57
2023/04/03 07:49:58;;;;;;;9.75;6.38;;;;;;;;;;5016682;28;20516;-58
2023/04/03 07:52:25;;;;;;;11.50;7.80;;;;;;;;;;5015109;28;20041;-58
2023/04/03 07:54:51;;;;;;;11.50;6.53;;;;;;;;;;5014604;28;20141;-58
2023/04/03 07:57:17;;;;;;;12.02;7.63;;;;;;;;;;5009388;28;20052;-58
2023/04/03 07:59:43;;;;;;;13.52;8.65;;;;;;;;;;5012396;28;20045;-58
2023/04/03 08:02:10;;;;;;;11.27;7.00;;;;;;;;;;5016128;28;20520;-58
2023/04/03 08:04:36;;;;;;;11.73;7.38;;;;;;;;;;5014031;28;20049;-58
2023/04/03 08:07:02;;;;;;;13.63;8.95;;;;;;;;;;5014344;28;20615;-58
2023/04/03 08:09:28;;;;;;;12.10;7.93;;;;;;;;;;5013788;28;20055;-58
2023/04/03 08:11:54;;;;;;;13.48;8.02;;;;;;;;;;5016800;28;20046;-58
2023/04/03 08:14:20;;;;;;;11.73;8.02;;;;;;;;;;5012239;28;20046;-57
2023/04/03 08:16:47;;;;;;;11.90;6.90;;;;;;;;;;5012321;28;20177;-58
2023/04/03 08:19:15;;;;;;;11.05;7.85;;;;;;;;;;5011343;28;20065;-58
2023/04/03 08:21:41;;;;;;;13.85;7.97;;;;;;;;;;5016035;28;20633;-57
2023/04/03 08:24:08;;;;;;;11.15;6.90;;;;;;;;;;5015198;28;20124;-58
2023/04/03 08:26:35;;;;;;;10.48;7.82;;;;;;;;;;5014254;28;20054;-58
2023/04/03 08:29:01;;;;;;;11.90;7.00;;;;;;;;;;5009838;28;20198;-58
2023/04/03 08:31:27;;;;;;;9.90;6.63;;;;;;;;;;5015955;28;20038;-58
2023/04/03 08:33:53;;;;;;;11.65;7.63;;;;;;;;;;5011334;28;20547;-58
2023/04/03 08:36:24;;;;;;;10.10;7.45;;;;;;;;;;5015117;28;20212;-58
2023/04/03 08:38:51;;;;;;;11.43;6.87;;;;;;;;;;5013698;28;20188;-58
2023/04/03 08:41:30;;;;;;;8.88;6.32;;;;;;;;;;5014604;28;20288;-58
2023/04/03 08:44:08;;;;;;;10.60;6.93;;;;;;;;;;5007243;28;20405;-58
2023/04/03 08:46:40;;;;;;;10.07;6.65;;;;;;;;;;5004408;28;20184;-58
2023/04/03 08:49:11;;;;;;;8.07;5.88;;;;;;;;;;5014560;28;20046;-58
2023/04/03 08:51:38;;;;;;;11.15;6.00;;;;;;;;;;5014439;28;20551;-58
2023/04/03 08:54:08;;;;;;;9.30;6.35;;;;;;;;;;5013000;28;20073;-58
2023/04/03 08:56:35;;;;;;;7.57;5.30;;;;;;;;;;5015353;28;20201;-59
2023/04/03 08:59:05;;;;;;;6.47;5.25;;;;;;;;;;5013080;28;20056;-58
2023/04/03 09:01:36;;;;;;;6.13;4.40;;;;;;;;;;5013525;28;20061;-58
2023/04/03 09:04:04;;;;;;;7.80;5.30;;;;;;;;;;5014537;28;20516;-58
2023/04/03 09:06:35;;;;;;;7.70;4.85;;;;;;;;;;5012464;28;20050;-58
2023/04/03 09:09:03;;;;;;;5.35;4.15;;;;;;;;;;5013531;28;20153;-58
2023/04/03 09:11:39;;;;;;;7.63;4.53;;;;;;;;;;5014293;28;20878;-58
2023/04/03 09:14:11;;;;;;;5.45;3.40;;;;;;;;;;5014940;28;20038;-58
2023/04/03 09:16:44;;;;;;;5.75;3.90;;;;;;;;;;5011010;28;20910;-58
2023/04/03 09:19:21;;;;;;;6.13;4.20;;;;;;;;;;5014444;28;20145;-58
2023/04/03 09:21:48;;;;;;;5.82;4.20;;;;;;;;;;5009108;28;20049;-58
2023/04/03 09:24:16;;;;;;;8.68;4.45;;;;;;;;;;5009512;28;20053;-58
2023/04/03 09:26:58;;;;;;;9.77;4.03;;;;;;;;;;5011518;28;20053;-58
2023/04/03 09:29:25;;;;;;;5.88;3.83;;;;;;;;;;5043658;28;20137;-58
2023/04/03 09:31:55;;;;;;;5.60;3.53;;;;;;;;;;5008344;28;20050;-59
2023/04/03 09:34:23;;;;;;;11.88;4.68;;;;;;;;;;5009441;28;20104;-58
2023/04/03 09:36:55;;;;;;;6.60;4.40;;;;;;;;;;5007897;28;20436;-58
2023/04/03 09:39:26;;;;;;;6.97;3.80;;;;;;;;;;5011133;28;20053;-58
2023/04/03 09:41:56;;;;;;;4.82;3.58;;;;;;;;;;5011119;28;20046;-58
2023/04/03 09:44:27;;;;;;;3.70;2.88;;;;;;;;;;5012256;28;20033;-58
2023/04/03 09:46:53;;;;;;;6.32;3.50;;;;;;;;;;5006025;28;20132;-58
2023/04/03 09:49:19;;;;;;;7.55;4.97;;;;;;;;;;5005937;28;20045;-58
2023/04/03 09:51:46;;;;;;;6.82;4.35;;;;;;;;;;5004934;28;20053;-58
2023/04/03 09:54:31;;;;;;;6.50;3.67;;;;;;;;;;5012513;28;20413;-58
2023/04/03 09:56:59;;;;;;;6.85;4.55;;;;;;;;;;5010878;28;20128;-58
2023/04/03 09:59:25;;;;;;;5.57;3.58;;;;;;;;;;5014386;28;20046;-58
2023/04/03 10:01:58;;;;;;;8.05;4.03;;;;;;;;;;5007257;28;20145;-58
2023/04/03 10:04:25;;;;;;;9.15;4.68;;;;;;;;;;5012203;28;20180;-58
2023/04/03 10:06:55;;;;;;;9.73;5.60;;;;;;;;;;5012907;28;20096;-59
2023/04/03 10:09:25;;;;;;;8.40;4.53;;;;;;;;;;5006115;28;20111;-58
2023/04/03 10:12:22;;;;;;;8.85;5.40;;;;;;;;;;5045369;28;20050;-58
2023/04/03 10:14:51;;;;;;;8.57;4.70;;;;;;;;;;5012939;28;20095;-58
2023/04/03 10:17:18;;;;;;;8.88;4.72;;;;;;;;;;5013198;28;20054;-58
2023/04/03 10:19:44;;;;;;;5.47;4.20;;;;;;;;;;5014030;28;20053;-58
2023/04/03 10:22:29;;;;;;;7.75;5.03;;;;;;;;;;5013513;28;20133;-58
2023/04/03 10:24:58;;;;;;;7.93;4.53;;;;;;;;;;5013845;28;20730;-58
2023/04/03 10:27:33;;;;;;;8.73;3.90;;;;;;;;;;5012966;28;20057;-58
2023/04/03 10:30:21;;;;;;;8.32;5.35;;;;;;;;;;5013302;28;20535;-58
2023/04/03 10:33:05;;;;;;;12.02;5.35;;;;;;;;;;5012727;28;20048;-58
2023/04/03 10:35:35;;;;;;;6.88;5.05;;;;;;;;;;5006266;28;20880;-59
2023/04/03 10:38:15;;;;;;;6.35;4.28;;;;;;;;;;5007429;28;20046;-63
2023/04/03 10:41:00;;;;;;;9.77;5.63;;;;;;;;;;5006177;28;20088;-58
2023/04/03 10:43:34;;;;;;;10.13;4.90;;;;;;;;;;5005675;28;20046;-58
2023/04/03 10:46:00;;;;;;;7.43;5.18;;;;;;;;;;5004944;28;20042;-58
2023/04/03 10:48:41;;;;;;;7.03;5.15;;;;;;;;;;5010567;28;20046;-58
2023/04/03 10:51:13;;;;;;;7.18;5.20;;;;;;;;;;5020340;28;20045;-58
2023/04/03 10:53:39;;;;;;;;;;;;;;;;;;5014725;28;20372;-58
2023/04/03 10:56:08;;;;;;;7.88;5.10;;;;;;;;;;5012078;28;19922;-58
2023/04/03 10:59:00;;;;;;;8.10;5.07;;;;;;;;;;5013787;28;20050;-58
2023/04/03 11:01:27;;;;;;;;;;;;;;;;;;5007212;28;20056;-58
2023/04/03 11:03:58;;;;;;;8.75;5.68;;;;;;;;;;5013867;28;19925;-59
2023/04/03 11:06:26;;;;;;;8.95;5.03;;;;;;;;;;5009037;28;20056;-58
2023/04/03 11:08:58;;;;;;;8.57;5.55;;;;;;;;;;5011370;28;20056;-58
2023/04/03 11:11:32;;;;;;;7.00;4.97;;;;;;;;;;5008114;28;20034;-58
2023/04/03 11:14:04;;;;;;;9.32;4.60;;;;;;;;;;5012016;28;20052;-58
2023/04/03 11:16:34;;;;;;;5.80;4.15;;;;;;;;;;5011803;28;20560;-58
2023/04/03 11:19:03;;;;;;;13.00;6.57;;;;;;;;;;5011148;28;20066;-58
2023/04/03 11:21:30;;;;;;;10.73;6.63;;;;;;;;;;5010159;28;20288;-58
2023/04/03 11:23:58;;;;;;;5.10;4.18;;;;;;;;;;5010018;28;20092;-58
2023/04/03 11:26:28;;;;;;;9.00;5.50;;;;;;;;;;5009344;28;20107;-58
2023/04/03 11:28:56;;;;;;;7.43;5.80;;;;;;;;;;5014017;28;20049;-58
2023/04/03 11:31:29;;;;;;;10.07;5.70;;;;;;;;;;5009525;28;20049;-58
2023/04/03 11:34:04;;;;;;;7.00;4.93;;;;;;;;;;5012048;28;20553;-58
2023/04/03 11:36:32;;;;;;;8.23;5.20;;;;;;;;;;5006749;28;20069;-58
2023/04/03 11:39:01;;;;;;;6.63;4.97;;;;;;;;;;5002636;28;20039;-58
2023/04/03 11:41:29;;;;;;;7.88;4.97;;;;;;;;;;4997502;28;20065;-58
2023/04/03 11:44:27;;;;;;;9.00;4.82;;;;;;;;;;5002694;28;20034;-58
2023/04/03 11:46:54;;;;;;;6.88;4.13;;;;;;;;;;5021695;28;20076;-58
2023/04/03 11:49:40;;;;;;;11.18;5.75;;;;;;;;;;5009866;28;20072;-58
2023/04/03 11:52:10;;;;;;;8.38;5.88;;;;;;;;;;5010694;28;20180;-58
2023/04/03 11:54:46;;;;;;;9.23;6.30;;;;;;;;;;5008726;28;20053;-58
2023/04/03 11:57:31;;;;;;;8.63;5.30;;;;;;;;;;5005379;28;20046;-58
2023/04/03 11:59:57;;;;;;;12.27;7.50;;;;;;;;;;5005937;28;20073;-58
2023/04/03 12:02:37;;;;;;;8.60;5.03;;;;;;;;;;5006153;28;20590;-58
2023/04/03 12:05:22;;;;;;;6.93;5.10;;;;;;;;;;5007439;28;20070;-58
2023/04/03 12:08:07;;;;;;;4.25;3.40;;;;;;;;;;5017218;28;20881;-57
2023/04/03 12:10:33;;;;;;;7.72;4.15;;;;;;;;;;5013443;28;20049;-57
2023/04/03 12:13:02;;;;;;;9.07;5.85;;;;;;;;;;5016461;28;20042;-58
2023/04/03 12:15:37;;;;;;;6.03;3.72;;;;;;;;;;5013987;28;20170;-57
2023/04/03 12:18:22;;;;;;;9.30;4.78;;;;;;;;;;5016794;28;20050;-57
2023/04/03 12:20:51;;;;;;;7.22;4.50;;;;;;;;;;5015699;28;20063;-57
2023/04/03 12:23:26;;;;;;;8.82;5.68;;;;;;;;;;5015633;28;20045;-58
2023/04/03 12:25:52;;;;;;;7.50;5.60;;;;;;;;;;5047834;28;20049;-58
2023/04/03 12:28:18;;;;;;;8.73;4.03;;;;;;;;;;5016949;28;20541;-57
2023/04/03 12:30:45;;;;;;;6.13;4.10;;;;;;;;;;5016196;28;20096;-57
2023/04/03 12:33:11;;;;;;;7.50;4.72;;;;;;;;;;5016686;28;20046;-57
2023/04/03 12:35:45;;;;;;;5.72;3.95;;;;;;;;;;5015598;28;20049;-57
2023/04/03 12:38:29;;;;;;;4.97;3.70;;;;;;;;;;5010160;28;20116;-57
2023/04/03 12:41:14;;;;;;;6.38;3.95;;;;;;;;;;5005645;28;20054;-58
2023/04/03 12:43:43;;;;;;;8.00;3.60;;;;;;;;;;5004303;28;20037;-57
2023/04/03 12:46:12;;;;;;;4.70;3.08;;;;;;;;;;5006651;28;20038;-58
2023/04/03 12:48:40;;;;;;;6.57;3.75;;;;;;;;;;5005382;28;21254;-58
2023/04/03 12:51:07;;;;;;;13.15;5.32;;;;;;;;;;5006166;28;20049;-58
2023/04/03 12:53:34;;;;;;;4.65;3.70;;;;;;;;;;5007866;28;20154;-58
2023/04/03 12:56:19;;;;;;;6.40;4.13;;;;;;;;;;5014615;28;20037;-58
2023/04/03 12:58:45;;;;;;;7.00;3.60;;;;;;;;;;5011080;28;20052;-59
2023/04/03 13:01:16;;;;;;;5.30;4.00;;;;;;;;;;5011853;28;20046;-58
2023/04/03 13:03:47;;;;;;;4.22;3.13;;;;;;;;;;5013869;28;20046;-59
2023/04/03 13:06:22;;;;;;;6.07;3.33;;;;;;;;;;5007698;28;20250;-59
2023/04/03 13:08:56;;;;;;;5.95;3.22;;;;;;;;;;5011220;28;20045;-58
2023/04/03 13:11:23;;;;;;;5.80;3.25;;;;;;;;;;5013003;28;20038;-59
2023/04/03 13:13:57;;;;;;;6.97;3.45;;;;;;;;;;5006982;28;20475;-59
2023/04/03 13:16:23;;;;;;;3.80;2.78;;;;;;;;;;5010140;28;20117;-59
2023/04/03 13:18:53;;;;;;;6.47;3.35;;;;;;;;;;5012617;28;20156;-60
2023/04/03 13:21:24;;;;;;;4.45;3.30;;;;;;;;;;5014904;28;20066;-59
2023/04/03 13:23:52;;;;;;;5.00;2.80;;;;;;;;;;5014140;28;20071;-58
2023/04/03 13:26:20;;;;;;;5.57;3.20;;;;;;;;;;5011646;28;20116;-59
2023/04/03 13:28:47;;;;;;;6.28;3.50;;;;;;;;;;5008492;28;20048;-59
2023/04/03 13:31:14;;;;;;;6.05;2.35;;;;;;;;;;5011319;28;20078;-59
2023/04/03 13:34:03;;;;;;;3.97;2.42;;;;;;;;;;5002383;28;20570;-59
2023/04/03 13:36:46;;;;;;;6.90;3.75;;;;;;;;;;5011929;28;20077;-58
2023/04/03 13:39:15;;;;;;;5.18;2.80;;;;;;;;;;5010136;28;20122;-59
2023/04/03 13:41:43;;;;;;;7.05;3.25;;;;;;;;;;5009412;28;20053;-58
2023/04/03 13:44:21;;;;;;;9.35;4.28;;;;;;;;;;5012040;28;20072;-58
2023/04/03 13:46:48;;;;;;;4.93;3.00;;;;;;;;;;5010087;28;20045;-59
2023/04/03 13:49:19;;;;;;;5.60;2.92;;;;;;;;;;5010248;28;20053;-59
2023/04/03 13:51:45;;;;;;;4.05;2.60;;;;;;;;;;5010975;28;20034;-59
2023/04/03 13:54:22;;;;;;;17.30;3.78;;;;;;;;;;5043671;28;20192;-58
2023/04/03 13:56:53;;;;;;;6.80;3.75;;;;;;;;;;5012907;28;20053;-59
2023/04/03 13:59:19;;;;;;;4.20;3.05;;;;;;;;;;5012257;28;20050;-59
2023/04/03 14:01:53;;;;;;;4.63;3.15;;;;;;;;;;5009644;28;20053;-60
2023/04/03 14:04:21;;;;;;;8.52;3.03;;;;;;;;;;5003466;28;20144;-59
2023/04/03 14:06:48;;;;;;;7.07;3.10;;;;;;;;;;5009489;28;20038;-58
2023/04/03 14:09:14;;;;;;;4.75;2.80;;;;;;;;;;5013656;28;20050;-58
2023/04/03 14:11:41;;;;;;;5.35;2.83;;;;;;;;;;5012023;28;20898;-58
2023/04/03 14:14:15;;;;;;;9.80;2.25;;;;;;;;;;5013412;28;20049;-58
2023/04/03 14:16:43;;;;;;;4.55;3.35;;;;;;;;;;5014795;28;20046;-58
2023/04/03 14:19:18;;;;;;;5.57;3.03;;;;;;;;;;5009998;28;20049;-58
2023/04/03 14:21:44;;;;;;;5.50;2.58;;;;;;;;;;5014908;28;20046;-58
2023/04/03 14:24:11;;;;;;;3.92;2.20;;;;;;;;;;5014574;28;20977;-59
2023/04/03 14:26:37;;;;;;;4.43;2.78;;;;;;;;;;5013904;28;20034;-59
2023/04/03 14:29:03;;;;;;;3.85;2.40;;;;;;;;;;5013815;28;20125;-58
2023/04/03 14:31:29;;;;;;;5.95;2.83;;;;;;;;;;5012598;28;20053;-58
2023/04/03 14:33:55;;;;;;;5.40;3.35;;;;;;;;;;5013986;28;20069;-58
2023/04/03 14:36:23;;;;;;;4.65;2.95;;;;;;;;;;5011537;28;20945;-58
2023/04/03 14:38:50;;;;;;;4.82;2.42;;;;;;;;;;5015152;28;20041;-58